sensor_id;sensor_type;location;lat;lon;timestamp;temperature;humidity
48998;DHT22;34807;51.456;7.244;2024-02-23T00:02:05;8.30;99.90
48998;DHT22;34807;51.456;7.244;2024-02-23T00:04:31;8.30;99.90
48998;DHT22;34807;51.456;7.244;2024-02-23T00:06:56;8.30;99.90
48998;DHT22;34807;51.456;7.244;2024-02-23T00:09:22;8.30;99.90
48998;DHT22;34807;51.456;7.244;2024-02-23T00:11:47;8.20;99.90
48998;DHT22;34807;51.456;7.244;2024-02-23T00:14:15;8.20;99.90
48998;DHT22;34807;51.456;7.244;2024-02-23T00:16:41;8.20;99.90
48998;DHT22;34807;51.456;7.244;2024-02-23T00:19:09;8.20;99.90
48998;DHT22;34807;51.456;7.244;2024-02-23T00:21:35;8.20;99.90
48998;DHT22;34807;51.456;7.244;2024-02-23T00:24:01;8.20;99.90
48998;DHT22;34807;51.456;7.244;2024-02-23T00:26:27;8.10;99.90
48998;DHT22;34807;51.456;7.244;2024-02-23T00:28:54;8.10;99.90
48998;DHT22;34807;51.456;7.244;2024-02-23T00:31:19;8.10;99.90
48998;DHT22;34807;51.456;7.244;2024-02-23T00:33:45;8.10;99.90
48998;DHT22;34807;51.456;7.244;2024-02-23T00:36:10;8.10;99.90
48998;DHT22;34807;51.456;7.244;2024-02-23T00:38:36;8.10;99.90
48998;DHT22;34807;51.456;7.244;2024-02-23T00:41:02;8.10;99.90
48998;DHT22;34807;51.456;7.244;2024-02-23T00:43:27;8.10;99.90
48998;DHT22;34807;51.456;7.244;2024-02-23T00:45:55;8.00;99.90
48998;DHT22;34807;51.456;7.244;2024-02-23T00:48:20;8.00;99.90
48998;DHT22;34807;51.456;7.244;2024-02-23T00:50:46;8.00;99.90
48998;DHT22;34807;51.456;7.244;2024-02-23T00:53:11;8.00;99.90
48998;DHT22;34807;51.456;7.244;2024-02-23T00:55:37;8.00;99.90
48998;DHT22;34807;51.456;7.244;2024-02-23T00:58:03;8.00;99.90
48998;DHT22;34807;51.456;7.244;2024-02-23T01:00:28;8.00;99.90
48998;DHT22;34807;51.456;7.244;2024-02-23T01:02:54;8.00;99.90
48998;DHT22;34807;51.456;7.244;2024-02-23T01:05:20;7.90;99.90
48998;DHT22;34807;51.456;7.244;2024-02-23T01:07:45;7.90;99.90
48998;DHT22;34807;51.456;7.244;2024-02-23T01:10:11;7.90;99.90
48998;DHT22;34807;51.456;7.244;2024-02-23T01:12:36;7.90;99.90
48998;DHT22;34807;51.456;7.244;2024-02-23T01:15:02;7.80;99.90
48998;DHT22;34807;51.456;7.244;2024-02-23T01:17:28;7.80;99.90
48998;DHT22;34807;51.456;7.244;2024-02-23T01:19:53;7.80;99.90
48998;DHT22;34807;51.456;7.244;2024-02-23T01:22:19;7.80;99.90
48998;DHT22;34807;51.456;7.244;2024-02-23T01:24:44;7.80;99.90
48998;DHT22;34807;51.456;7.244;2024-02-23T01:27:10;7.80;99.90
48998;DHT22;34807;51.456;7.244;2024-02-23T01:29:35;7.80;99.90
48998;DHT22;34807;51.456;7.244;2024-02-23T01:32:01;7.80;99.90
48998;DHT22;34807;51.456;7.244;2024-02-23T01:34:26;7.80;99.90
48998;DHT22;34807;51.456;7.244;2024-02-23T01:36:52;7.70;99.90
48998;DHT22;34807;51.456;7.244;2024-02-23T01:39:17;7.70;99.90
48998;DHT22;34807;51.456;7.244;2024-02-23T01:41:43;7.70;99.90
48998;DHT22;34807;51.456;7.244;2024-02-23T01:44:09;7.70;99.90
48998;DHT22;34807;51.456;7.244;2024-02-23T01:46:35;7.70;99.90
48998;DHT22;34807;51.456;7.244;2024-02-23T01:49:01;7.70;99.90
48998;DHT22;34807;51.456;7.244;2024-02-23T01:51:26;7.70;99.90
48998;DHT22;34807;51.456;7.244;2024-02-23T01:53:52;7.70;99.90
48998;DHT22;34807;51.456;7.244;2024-02-23T01:56:17;7.70;99.90
48998;DHT22;34807;51.456;7.244;2024-02-23T01:58:43;7.70;99.90
48998;DHT22;34807;51.456;7.244;2024-02-23T02:01:10;7.70;99.90
48998;DHT22;34807;51.456;7.244;2024-02-23T02:03:36;7.70;99.90
48998;DHT22;34807;51.456;7.244;2024-02-23T02:06:03;7.60;99.90
48998;DHT22;34807;51.456;7.244;2024-02-23T02:08:29;7.60;99.90
48998;DHT22;34807;51.456;7.244;2024-02-23T02:10:55;7.60;99.90
48998;DHT22;34807;51.456;7.244;2024-02-23T02:13:20;7.60;99.90
48998;DHT22;34807;51.456;7.244;2024-02-23T02:15:46;7.60;99.90
48998;DHT22;34807;51.456;7.244;2024-02-23T02:18:11;7.60;99.90
48998;DHT22;34807;51.456;7.244;2024-02-23T02:20:37;7.60;99.90
48998;DHT22;34807;51.456;7.244;2024-02-23T02:23:06;7.60;99.90
48998;DHT22;34807;51.456;7.244;2024-02-23T02:25:32;7.60;99.90
48998;DHT22;34807;51.456;7.244;2024-02-23T02:27:58;7.50;99.90
48998;DHT22;34807;51.456;7.244;2024-02-23T02:30:23;7.50;99.90
48998;DHT22;34807;51.456;7.244;2024-02-23T02:32:49;7.50;99.90
48998;DHT22;34807;51.456;7.244;2024-02-23T02:35:14;7.50;99.90
48998;DHT22;34807;51.456;7.244;2024-02-23T02:37:40;7.50;99.90
48998;DHT22;34807;51.456;7.244;2024-02-23T02:40:05;7.50;99.90
48998;DHT22;34807;51.456;7.244;2024-02-23T02:42:32;7.50;99.90
48998;DHT22;34807;51.456;7.244;2024-02-23T02:44:57;7.50;99.90
48998;DHT22;34807;51.456;7.244;2024-02-23T02:47:23;7.40;99.90
48998;DHT22;34807;51.456;7.244;2024-02-23T02:49:49;7.50;99.90
48998;DHT22;34807;51.456;7.244;2024-02-23T02:52:15;7.50;99.90
48998;DHT22;34807;51.456;7.244;2024-02-23T02:54:40;7.50;99.90
48998;DHT22;34807;51.456;7.244;2024-02-23T02:57:06;7.40;99.90
48998;DHT22;34807;51.456;7.244;2024-02-23T02:59:34;7.40;99.90
48998;DHT22;34807;51.456;7.244;2024-02-23T03:02:00;7.40;99.90
48998;DHT22;34807;51.456;7.244;2024-02-23T03:04:26;7.40;99.90
48998;DHT22;34807;51.456;7.244;2024-02-23T03:06:51;7.40;99.90
48998;DHT22;34807;51.456;7.244;2024-02-23T03:09:17;7.40;99.90
48998;DHT22;34807;51.456;7.244;2024-02-23T03:11:43;7.40;99.90
48998;DHT22;34807;51.456;7.244;2024-02-23T03:14:08;7.40;99.90
48998;DHT22;34807;51.456;7.244;2024-02-23T03:16:35;7.40;99.90
48998;DHT22;34807;51.456;7.244;2024-02-23T03:19:02;7.40;99.90
48998;DHT22;34807;51.456;7.244;2024-02-23T03:21:28;7.40;99.90
48998;DHT22;34807;51.456;7.244;2024-02-23T03:23:53;7.40;99.90
48998;DHT22;34807;51.456;7.244;2024-02-23T03:26:19;7.30;99.90
48998;DHT22;34807;51.456;7.244;2024-02-23T03:28:45;7.30;99.90
48998;DHT22;34807;51.456;7.244;2024-02-23T03:31:10;7.30;99.90
48998;DHT22;34807;51.456;7.244;2024-02-23T03:33:36;7.30;99.90
48998;DHT22;34807;51.456;7.244;2024-02-23T03:36:02;7.30;99.90
48998;DHT22;34807;51.456;7.244;2024-02-23T03:38:27;7.30;99.90
48998;DHT22;34807;51.456;7.244;2024-02-23T03:40:55;7.30;99.90
48998;DHT22;34807;51.456;7.244;2024-02-23T03:43:20;7.20;99.90
48998;DHT22;34807;51.456;7.244;2024-02-23T03:45:46;7.30;99.90
48998;DHT22;34807;51.456;7.244;2024-02-23T03:48:11;7.20;99.90
48998;DHT22;34807;51.456;7.244;2024-02-23T03:50:37;7.20;99.90
48998;DHT22;34807;51.456;7.244;2024-02-23T03:53:03;7.20;99.90
48998;DHT22;34807;51.456;7.244;2024-02-23T03:55:29;7.20;99.90
48998;DHT22;34807;51.456;7.244;2024-02-23T03:57:54;7.20;99.90
48998;DHT22;34807;51.456;7.244;2024-02-23T04:00:20;7.20;99.90
48998;DHT22;34807;51.456;7.244;2024-02-23T04:02:47;7.20;99.90
48998;DHT22;34807;51.456;7.244;2024-02-23T04:05:12;7.20;99.90
48998;DHT22;34807;51.456;7.244;2024-02-23T04:07:38;7.20;99.90
48998;DHT22;34807;51.456;7.244;2024-02-23T04:10:03;7.20;99.90
48998;DHT22;34807;51.456;7.244;2024-02-23T04:12:29;7.20;99.90
48998;DHT22;34807;51.456;7.244;2024-02-23T04:14:56;7.20;99.90
48998;DHT22;34807;51.456;7.244;2024-02-23T04:17:21;7.20;99.90
48998;DHT22;34807;51.456;7.244;2024-02-23T04:19:47;7.20;99.90
48998;DHT22;34807;51.456;7.244;2024-02-23T04:22:12;7.10;99.90
48998;DHT22;34807;51.456;7.244;2024-02-23T04:24:39;7.10;99.90
48998;DHT22;34807;51.456;7.244;2024-02-23T04:27:07;7.20;99.90
48998;DHT22;34807;51.456;7.244;2024-02-23T04:29:33;7.20;99.90
48998;DHT22;34807;51.456;7.244;2024-02-23T04:31:59;7.20;99.90
48998;DHT22;34807;51.456;7.244;2024-02-23T04:34:25;7.20;99.90
48998;DHT22;34807;51.456;7.244;2024-02-23T04:36:50;7.20;99.90
48998;DHT22;34807;51.456;7.244;2024-02-23T04:39:16;7.20;99.90
48998;DHT22;34807;51.456;7.244;2024-02-23T04:41:41;7.10;99.90
48998;DHT22;34807;51.456;7.244;2024-02-23T04:44:07;7.10;99.90
48998;DHT22;34807;51.456;7.244;2024-02-23T04:46:32;7.10;99.90
48998;DHT22;34807;51.456;7.244;2024-02-23T04:48:59;7.10;99.90
48998;DHT22;34807;51.456;7.244;2024-02-23T04:51:25;7.10;99.90
48998;DHT22;34807;51.456;7.244;2024-02-23T04:53:50;7.10;99.90
48998;DHT22;34807;51.456;7.244;2024-02-23T04:56:16;7.10;99.90
48998;DHT22;34807;51.456;7.244;2024-02-23T04:58:42;7.10;99.90
48998;DHT22;34807;51.456;7.244;2024-02-23T05:01:08;7.10;99.90
48998;DHT22;34807;51.456;7.244;2024-02-23T05:03:34;7.10;99.90
48998;DHT22;34807;51.456;7.244;2024-02-23T05:05:59;7.10;99.90
48998;DHT22;34807;51.456;7.244;2024-02-23T05:08:25;7.10;99.90
48998;DHT22;34807;51.456;7.244;2024-02-23T05:10:52;7.10;99.90
48998;DHT22;34807;51.456;7.244;2024-02-23T05:13:18;7.00;99.90
48998;DHT22;34807;51.456;7.244;2024-02-23T05:15:44;7.00;99.90
48998;DHT22;34807;51.456;7.244;2024-02-23T05:18:09;7.10;99.90
48998;DHT22;34807;51.456;7.244;2024-02-23T05:20:35;7.00;99.90
48998;DHT22;34807;51.456;7.244;2024-02-23T05:23:00;7.00;99.90
48998;DHT22;34807;51.456;7.244;2024-02-23T05:25:26;7.00;99.90
48998;DHT22;34807;51.456;7.244;2024-02-23T05:27:52;7.00;99.90
48998;DHT22;34807;51.456;7.244;2024-02-23T05:30:17;7.00;99.90
48998;DHT22;34807;51.456;7.244;2024-02-23T05:32:43;7.00;99.90
48998;DHT22;34807;51.456;7.244;2024-02-23T05:35:09;7.00;99.90
48998;DHT22;34807;51.456;7.244;2024-02-23T05:37:35;7.00;99.90
48998;DHT22;34807;51.456;7.244;2024-02-23T05:40:00;7.00;99.90
48998;DHT22;34807;51.456;7.244;2024-02-23T05:42:31;7.00;99.90
48998;DHT22;34807;51.456;7.244;2024-02-23T05:44:57;7.00;99.90
48998;DHT22;34807;51.456;7.244;2024-02-23T05:47:23;7.00;99.90
48998;DHT22;34807;51.456;7.244;2024-02-23T05:49:49;7.00;99.90
48998;DHT22;34807;51.456;7.244;2024-02-23T05:52:15;7.00;99.90
48998;DHT22;34807;51.456;7.244;2024-02-23T05:54:41;7.00;99.90
48998;DHT22;34807;51.456;7.244;2024-02-23T05:57:06;7.00;99.90
48998;DHT22;34807;51.456;7.244;2024-02-23T05:59:32;7.00;99.90
48998;DHT22;34807;51.456;7.244;2024-02-23T06:01:57;6.90;99.90
48998;DHT22;34807;51.456;7.244;2024-02-23T06:04:23;6.90;99.90
48998;DHT22;34807;51.456;7.244;2024-02-23T06:06:49;6.90;99.90
48998;DHT22;34807;51.456;7.244;2024-02-23T06:09:14;6.90;99.90
48998;DHT22;34807;51.456;7.244;2024-02-23T06:11:41;6.80;99.90
48998;DHT22;34807;51.456;7.244;2024-02-23T06:14:07;6.80;99.90
48998;DHT22;34807;51.456;7.244;2024-02-23T06:16:33;6.80;99.90
48998;DHT22;34807;51.456;7.244;2024-02-23T06:18:58;6.80;99.90
48998;DHT22;34807;51.456;7.244;2024-02-23T06:21:24;6.80;99.90
48998;DHT22;34807;51.456;7.244;2024-02-23T06:23:49;6.80;99.90
48998;DHT22;34807;51.456;7.244;2024-02-23T06:26:15;6.80;99.90
48998;DHT22;34807;51.456;7.244;2024-02-23T06:28:40;6.80;99.90
48998;DHT22;34807;51.456;7.244;2024-02-23T06:31:09;6.70;99.90
48998;DHT22;34807;51.456;7.244;2024-02-23T06:33:35;6.70;99.90
48998;DHT22;34807;51.456;7.244;2024-02-23T06:36:00;6.70;99.90
48998;DHT22;34807;51.456;7.244;2024-02-23T06:38:26;6.70;99.90
48998;DHT22;34807;51.456;7.244;2024-02-23T06:40:52;6.70;99.90
48998;DHT22;34807;51.456;7.244;2024-02-23T06:43:18;6.70;99.90
48998;DHT22;34807;51.456;7.244;2024-02-23T06:45:43;6.70;99.90
48998;DHT22;34807;51.456;7.244;2024-02-23T06:48:09;6.70;99.90
48998;DHT22;34807;51.456;7.244;2024-02-23T06:50:35;6.70;99.90
48998;DHT22;34807;51.456;7.244;2024-02-23T06:53:00;6.70;99.90
48998;DHT22;34807;51.456;7.244;2024-02-23T06:55:27;6.70;99.90
48998;DHT22;34807;51.456;7.244;2024-02-23T06:57:54;6.70;99.90
48998;DHT22;34807;51.456;7.244;2024-02-23T07:00:20;6.70;99.90
48998;DHT22;34807;51.456;7.244;2024-02-23T07:02:46;6.70;99.90
48998;DHT22;34807;51.456;7.244;2024-02-23T07:05:12;6.70;99.90
48998;DHT22;34807;51.456;7.244;2024-02-23T07:07:39;6.70;99.90
48998;DHT22;34807;51.456;7.244;2024-02-23T07:10:05;6.60;99.90
48998;DHT22;34807;51.456;7.244;2024-02-23T07:12:31;6.70;99.90
48998;DHT22;34807;51.456;7.244;2024-02-23T07:14:57;6.60;99.90
48998;DHT22;34807;51.456;7.244;2024-02-23T07:17:22;6.70;99.90
48998;DHT22;34807;51.456;7.244;2024-02-23T07:19:48;6.70;99.90
48998;DHT22;34807;51.456;7.244;2024-02-23T07:22:13;6.70;99.90
48998;DHT22;34807;51.456;7.244;2024-02-23T07:24:41;6.70;99.90
48998;DHT22;34807;51.456;7.244;2024-02-23T07:27:06;6.60;99.90
48998;DHT22;34807;51.456;7.244;2024-02-23T07:29:32;6.60;99.90
48998;DHT22;34807;51.456;7.244;2024-02-23T07:31:57;6.60;99.90
48998;DHT22;34807;51.456;7.244;2024-02-23T07:34:23;6.60;99.90
48998;DHT22;34807;51.456;7.244;2024-02-23T07:36:51;6.60;99.90
48998;DHT22;34807;51.456;7.244;2024-02-23T07:39:16;6.70;99.90
48998;DHT22;34807;51.456;7.244;2024-02-23T07:41:42;6.60;99.90
48998;DHT22;34807;51.456;7.244;2024-02-23T07:44:07;6.60;99.90
48998;DHT22;34807;51.456;7.244;2024-02-23T07:46:33;6.60;99.90
48998;DHT22;34807;51.456;7.244;2024-02-23T07:48:58;6.60;99.90
48998;DHT22;34807;51.456;7.244;2024-02-23T07:51:24;6.60;99.90
48998;DHT22;34807;51.456;7.244;2024-02-23T07:53:49;6.60;99.90
48998;DHT22;34807;51.456;7.244;2024-02-23T07:56:15;6.70;99.90
48998;DHT22;34807;51.456;7.244;2024-02-23T07:58:41;6.70;99.90
48998;DHT22;34807;51.456;7.244;2024-02-23T08:01:06;6.70;99.90
48998;DHT22;34807;51.456;7.244;2024-02-23T08:03:32;6.70;99.90
48998;DHT22;34807;51.456;7.244;2024-02-23T08:05:57;6.70;99.90
48998;DHT22;34807;51.456;7.244;2024-02-23T08:08:22;6.70;99.90
48998;DHT22;34807;51.456;7.244;2024-02-23T08:10:49;6.70;99.90
48998;DHT22;34807;51.456;7.244;2024-02-23T08:13:14;6.70;99.90
48998;DHT22;34807;51.456;7.244;2024-02-23T08:15:40;6.70;99.90
48998;DHT22;34807;51.456;7.244;2024-02-23T08:18:06;6.70;99.90
48998;DHT22;34807;51.456;7.244;2024-02-23T08:20:31;6.70;99.90
48998;DHT22;34807;51.456;7.244;2024-02-23T08:22:57;6.70;99.90
48998;DHT22;34807;51.456;7.244;2024-02-23T08:25:22;6.80;99.90
48998;DHT22;34807;51.456;7.244;2024-02-23T08:27:48;6.80;99.90
48998;DHT22;34807;51.456;7.244;2024-02-23T08:30:14;6.90;99.90
48998;DHT22;34807;51.456;7.244;2024-02-23T08:32:40;6.90;99.90
48998;DHT22;34807;51.456;7.244;2024-02-23T08:35:06;6.90;99.90
48998;DHT22;34807;51.456;7.244;2024-02-23T08:37:31;6.90;99.90
48998;DHT22;34807;51.456;7.244;2024-02-23T08:39:57;7.00;99.90
48998;DHT22;34807;51.456;7.244;2024-02-23T08:42:22;6.90;99.90
48998;DHT22;34807;51.456;7.244;2024-02-23T08:44:48;7.00;99.90
48998;DHT22;34807;51.456;7.244;2024-02-23T08:47:13;7.00;99.90
48998;DHT22;34807;51.456;7.244;2024-02-23T08:49:39;7.00;99.90
48998;DHT22;34807;51.456;7.244;2024-02-23T08:52:04;7.10;99.90
48998;DHT22;34807;51.456;7.244;2024-02-23T08:54:30;7.10;99.90
48998;DHT22;34807;51.456;7.244;2024-02-23T08:56:56;7.10;99.90
48998;DHT22;34807;51.456;7.244;2024-02-23T08:59:21;7.10;99.90
48998;DHT22;34807;51.456;7.244;2024-02-23T09:01:47;7.10;99.90
48998;DHT22;34807;51.456;7.244;2024-02-23T09:04:15;7.20;99.90
48998;DHT22;34807;51.456;7.244;2024-02-23T09:06:41;7.20;99.90
48998;DHT22;34807;51.456;7.244;2024-02-23T09:09:06;7.20;99.90
48998;DHT22;34807;51.456;7.244;2024-02-23T09:11:32;7.20;99.90
48998;DHT22;34807;51.456;7.244;2024-02-23T09:13:57;7.20;99.90
48998;DHT22;34807;51.456;7.244;2024-02-23T09:16:23;7.30;99.90
48998;DHT22;34807;51.456;7.244;2024-02-23T09:18:50;7.30;99.90
48998;DHT22;34807;51.456;7.244;2024-02-23T09:21:15;7.30;99.90
48998;DHT22;34807;51.456;7.244;2024-02-23T09:23:41;7.30;99.90
48998;DHT22;34807;51.456;7.244;2024-02-23T09:26:09;7.30;99.90
48998;DHT22;34807;51.456;7.244;2024-02-23T09:28:38;7.30;99.90
48998;DHT22;34807;51.456;7.244;2024-02-23T09:31:03;7.40;99.90
48998;DHT22;34807;51.456;7.244;2024-02-23T09:33:30;7.40;99.90
48998;DHT22;34807;51.456;7.244;2024-02-23T09:35:56;7.40;99.90
48998;DHT22;34807;51.456;7.244;2024-02-23T09:38:21;7.40;99.90
48998;DHT22;34807;51.456;7.244;2024-02-23T09:40:50;7.50;99.90
48998;DHT22;34807;51.456;7.244;2024-02-23T09:43:15;7.50;99.90
48998;DHT22;34807;51.456;7.244;2024-02-23T09:45:41;7.50;99.90
48998;DHT22;34807;51.456;7.244;2024-02-23T09:48:07;7.60;99.90
48998;DHT22;34807;51.456;7.244;2024-02-23T09:50:34;7.60;99.90
48998;DHT22;34807;51.456;7.244;2024-02-23T09:53:00;7.60;99.90
48998;DHT22;34807;51.456;7.244;2024-02-23T09:55:26;7.60;99.90
48998;DHT22;34807;51.456;7.244;2024-02-23T09:57:54;7.70;99.90
48998;DHT22;34807;51.456;7.244;2024-02-23T10:00:22;7.70;99.90
48998;DHT22;34807;51.456;7.244;2024-02-23T10:02:48;7.70;99.90
48998;DHT22;34807;51.456;7.244;2024-02-23T10:05:14;7.70;99.90
48998;DHT22;34807;51.456;7.244;2024-02-23T10:07:40;7.80;99.90
48998;DHT22;34807;51.456;7.244;2024-02-23T10:10:06;7.80;99.90
48998;DHT22;34807;51.456;7.244;2024-02-23T10:12:33;7.80;99.90
48998;DHT22;34807;51.456;7.244;2024-02-23T10:14:58;7.90;99.90
48998;DHT22;34807;51.456;7.244;2024-02-23T10:17:24;7.90;99.90
48998;DHT22;34807;51.456;7.244;2024-02-23T10:19:49;7.90;99.90
48998;DHT22;34807;51.456;7.244;2024-02-23T10:22:15;8.00;99.90
48998;DHT22;34807;51.456;7.244;2024-02-23T10:24:42;8.00;99.90
48998;DHT22;34807;51.456;7.244;2024-02-23T10:27:07;8.00;99.90
48998;DHT22;34807;51.456;7.244;2024-02-23T10:29:33;8.00;99.90
48998;DHT22;34807;51.456;7.244;2024-02-23T10:31:58;8.10;99.90
48998;DHT22;34807;51.456;7.244;2024-02-23T10:34:25;8.00;99.90
48998;DHT22;34807;51.456;7.244;2024-02-23T10:36:52;8.10;99.90
48998;DHT22;34807;51.456;7.244;2024-02-23T10:39:18;8.10;99.90
48998;DHT22;34807;51.456;7.244;2024-02-23T10:41:47;8.10;99.90
48998;DHT22;34807;51.456;7.244;2024-02-23T10:44:14;8.10;99.90
48998;DHT22;34807;51.456;7.244;2024-02-23T10:46:41;8.10;99.90
48998;DHT22;34807;51.456;7.244;2024-02-23T10:49:06;8.10;99.90
48998;DHT22;34807;51.456;7.244;2024-02-23T10:51:32;8.10;99.90
48998;DHT22;34807;51.456;7.244;2024-02-23T10:53:58;8.10;99.90
48998;DHT22;34807;51.456;7.244;2024-02-23T10:56:25;8.20;99.90
48998;DHT22;34807;51.456;7.244;2024-02-23T10:58:51;8.20;99.90
48998;DHT22;34807;51.456;7.244;2024-02-23T11:01:17;8.20;99.90
48998;DHT22;34807;51.456;7.244;2024-02-23T11:03:43;8.30;99.90
48998;DHT22;34807;51.456;7.244;2024-02-23T11:06:13;8.30;99.90
48998;DHT22;34807;51.456;7.244;2024-02-23T11:08:38;8.30;99.90
48998;DHT22;34807;51.456;7.244;2024-02-23T11:11:08;8.40;99.90
48998;DHT22;34807;51.456;7.244;2024-02-23T11:13:34;8.40;99.90
48998;DHT22;34807;51.456;7.244;2024-02-23T11:16:06;8.50;99.90
48998;DHT22;34807;51.456;7.244;2024-02-23T11:18:36;8.50;99.90
48998;DHT22;34807;51.456;7.244;2024-02-23T11:21:03;8.60;99.90
48998;DHT22;34807;51.456;7.244;2024-02-23T11:26:11;8.60;99.90
48998;DHT22;34807;51.456;7.244;2024-02-23T11:28:49;8.60;99.90
48998;DHT22;34807;51.456;7.244;2024-02-23T11:31:21;8.60;99.90
48998;DHT22;34807;51.456;7.244;2024-02-23T11:36:50;8.60;99.90
48998;DHT22;34807;51.456;7.244;2024-02-23T11:39:07;8.50;99.90
48998;DHT22;34807;51.456;7.244;2024-02-23T11:41:36;8.50;99.90
48998;DHT22;34807;51.456;7.244;2024-02-23T11:44:02;8.50;99.90
48998;DHT22;34807;51.456;7.244;2024-02-23T11:46:28;8.60;99.90
48998;DHT22;34807;51.456;7.244;2024-02-23T11:48:54;8.60;99.90
48998;DHT22;34807;51.456;7.244;2024-02-23T11:51:20;8.50;99.90
48998;DHT22;34807;51.456;7.244;2024-02-23T11:53:46;8.60;99.90
48998;DHT22;34807;51.456;7.244;2024-02-23T11:56:12;8.60;99.90
48998;DHT22;34807;51.456;7.244;2024-02-23T11:58:39;8.60;99.90
48998;DHT22;34807;51.456;7.244;2024-02-23T12:01:04;8.60;99.90
48998;DHT22;34807;51.456;7.244;2024-02-23T12:03:32;8.60;99.90
48998;DHT22;34807;51.456;7.244;2024-02-23T12:05:58;8.60;99.90
48998;DHT22;34807;51.456;7.244;2024-02-23T12:08:27;8.60;99.90
48998;DHT22;34807;51.456;7.244;2024-02-23T12:10:54;8.60;99.90
48998;DHT22;34807;51.456;7.244;2024-02-23T12:13:19;8.60;99.90
48998;DHT22;34807;51.456;7.244;2024-02-23T12:15:45;8.60;99.90
48998;DHT22;34807;51.456;7.244;2024-02-23T12:18:10;8.60;99.90
48998;DHT22;34807;51.456;7.244;2024-02-23T12:20:36;8.60;99.90
48998;DHT22;34807;51.456;7.244;2024-02-23T12:23:02;8.50;99.90
48998;DHT22;34807;51.456;7.244;2024-02-23T12:25:27;8.60;99.90
48998;DHT22;34807;51.456;7.244;2024-02-23T12:27:54;8.50;99.90
48998;DHT22;34807;51.456;7.244;2024-02-23T12:30:19;8.50;99.90
48998;DHT22;34807;51.456;7.244;2024-02-23T12:32:45;8.50;99.90
48998;DHT22;34807;51.456;7.244;2024-02-23T12:35:11;8.60;99.90
48998;DHT22;34807;51.456;7.244;2024-02-23T12:37:37;8.50;99.90
48998;DHT22;34807;51.456;7.244;2024-02-23T12:40:02;8.50;99.90
48998;DHT22;34807;51.456;7.244;2024-02-23T12:42:28;8.50;99.90
48998;DHT22;34807;51.456;7.244;2024-02-23T12:44:53;8.50;99.90
48998;DHT22;34807;51.456;7.244;2024-02-23T12:47:19;8.60;99.90
48998;DHT22;34807;51.456;7.244;2024-02-23T12:49:44;8.60;99.90
48998;DHT22;34807;51.456;7.244;2024-02-23T12:52:10;8.60;99.90
48998;DHT22;34807;51.456;7.244;2024-02-23T12:54:36;8.60;99.90
48998;DHT22;34807;51.456;7.244;2024-02-23T12:57:01;8.60;99.90
48998;DHT22;34807;51.456;7.244;2024-02-23T12:59:27;8.60;99.90
48998;DHT22;34807;51.456;7.244;2024-02-23T13:01:52;8.60;99.90
48998;DHT22;34807;51.456;7.244;2024-02-23T13:04:18;8.70;99.90
48998;DHT22;34807;51.456;7.244;2024-02-23T13:06:44;8.60;99.90
48998;DHT22;34807;51.456;7.244;2024-02-23T13:09:09;8.70;99.90
48998;DHT22;34807;51.456;7.244;2024-02-23T13:11:38;8.70;99.90
48998;DHT22;34807;51.456;7.244;2024-02-23T13:14:03;8.70;99.90
48998;DHT22;34807;51.456;7.244;2024-02-23T13:16:29;8.70;99.90
48998;DHT22;34807;51.456;7.244;2024-02-23T13:18:55;8.70;99.90
48998;DHT22;34807;51.456;7.244;2024-02-23T13:21:20;8.70;99.90
48998;DHT22;34807;51.456;7.244;2024-02-23T13:23:46;8.70;99.90
48998;DHT22;34807;51.456;7.244;2024-02-23T13:26:11;8.70;99.90
48998;DHT22;34807;51.456;7.244;2024-02-23T13:28:41;8.70;99.90
48998;DHT22;34807;51.456;7.244;2024-02-23T13:31:06;8.70;99.90
48998;DHT22;34807;51.456;7.244;2024-02-23T13:33:32;8.70;99.90
48998;DHT22;34807;51.456;7.244;2024-02-23T13:35:58;8.70;99.90
48998;DHT22;34807;51.456;7.244;2024-02-23T13:38:24;8.70;99.90
48998;DHT22;34807;51.456;7.244;2024-02-23T13:40:49;8.70;99.90
48998;DHT22;34807;51.456;7.244;2024-02-23T13:43:15;8.70;99.90
48998;DHT22;34807;51.456;7.244;2024-02-23T13:45:51;8.70;99.90
48998;DHT22;34807;51.456;7.244;2024-02-23T13:48:17;8.70;99.90
48998;DHT22;34807;51.456;7.244;2024-02-23T13:50:44;8.70;99.90
48998;DHT22;34807;51.456;7.244;2024-02-23T13:53:10;8.70;99.90
48998;DHT22;34807;51.456;7.244;2024-02-23T13:55:36;8.80;99.90
48998;DHT22;34807;51.456;7.244;2024-02-23T13:58:01;8.80;99.90
48998;DHT22;34807;51.456;7.244;2024-02-23T14:00:27;8.80;99.90
48998;DHT22;34807;51.456;7.244;2024-02-23T14:02:53;8.80;99.90
48998;DHT22;34807;51.456;7.244;2024-02-23T14:05:18;8.80;99.90
48998;DHT22;34807;51.456;7.244;2024-02-23T14:07:47;8.70;99.90
48998;DHT22;34807;51.456;7.244;2024-02-23T14:10:13;8.70;99.90
48998;DHT22;34807;51.456;7.244;2024-02-23T14:12:39;8.70;99.90
48998;DHT22;34807;51.456;7.244;2024-02-23T14:15:05;8.80;99.90
48998;DHT22;34807;51.456;7.244;2024-02-23T14:17:31;8.70;99.90
48998;DHT22;34807;51.456;7.244;2024-02-23T14:19:57;8.80;99.90
48998;DHT22;34807;51.456;7.244;2024-02-23T14:22:22;8.80;99.90
48998;DHT22;34807;51.456;7.244;2024-02-23T14:24:48;8.80;99.90
48998;DHT22;34807;51.456;7.244;2024-02-23T14:27:14;8.80;99.90
48998;DHT22;34807;51.456;7.244;2024-02-23T14:29:39;8.80;99.90
48998;DHT22;34807;51.456;7.244;2024-02-23T14:32:05;8.80;99.90
48998;DHT22;34807;51.456;7.244;2024-02-23T14:34:30;8.80;99.90
48998;DHT22;34807;51.456;7.244;2024-02-23T14:36:58;8.80;99.90
48998;DHT22;34807;51.456;7.244;2024-02-23T14:39:24;8.80;99.90
48998;DHT22;34807;51.456;7.244;2024-02-23T14:41:49;8.80;99.90
48998;DHT22;34807;51.456;7.244;2024-02-23T14:44:15;8.80;99.90
48998;DHT22;34807;51.456;7.244;2024-02-23T14:46:40;8.80;99.90
48998;DHT22;34807;51.456;7.244;2024-02-23T14:49:06;8.80;99.90
48998;DHT22;34807;51.456;7.244;2024-02-23T14:51:32;8.80;99.90
48998;DHT22;34807;51.456;7.244;2024-02-23T14:53:57;8.80;99.90
48998;DHT22;34807;51.456;7.244;2024-02-23T14:56:23;8.80;99.90
48998;DHT22;34807;51.456;7.244;2024-02-23T14:58:48;8.80;99.90
48998;DHT22;34807;51.456;7.244;2024-02-23T15:01:14;8.80;99.90
48998;DHT22;34807;51.456;7.244;2024-02-23T15:03:39;8.80;99.90
48998;DHT22;34807;51.456;7.244;2024-02-23T15:06:05;8.70;99.90
48998;DHT22;34807;51.456;7.244;2024-02-23T15:08:31;8.80;99.90
48998;DHT22;34807;51.456;7.244;2024-02-23T15:10:56;8.70;99.90
48998;DHT22;34807;51.456;7.244;2024-02-23T15:13:22;8.70;99.90
48998;DHT22;34807;51.456;7.244;2024-02-23T15:15:47;8.70;99.90
48998;DHT22;34807;51.456;7.244;2024-02-23T15:18:13;8.70;99.90
48998;DHT22;34807;51.456;7.244;2024-02-23T15:20:38;8.70;99.90
48998;DHT22;34807;51.456;7.244;2024-02-23T15:23:04;8.70;99.90
48998;DHT22;34807;51.456;7.244;2024-02-23T15:25:30;8.70;99.90
48998;DHT22;34807;51.456;7.244;2024-02-23T15:27:55;8.70;99.90
48998;DHT22;34807;51.456;7.244;2024-02-23T15:30:24;8.70;99.90
48998;DHT22;34807;51.456;7.244;2024-02-23T15:32:50;8.70;99.90
48998;DHT22;34807;51.456;7.244;2024-02-23T15:35:15;8.70;99.90
48998;DHT22;34807;51.456;7.244;2024-02-23T15:37:41;8.70;99.90
48998;DHT22;34807;51.456;7.244;2024-02-23T15:40:06;8.70;99.90
48998;DHT22;34807;51.456;7.244;2024-02-23T15:42:32;8.70;99.90